Time;durP1;ratioP1;P1;durP2;ratioP2;P2;SDS_P1;SDS_P2;PMS_P1;PMS_P2;Temp;Humidity;BMP_temperature;BMP_pressure;BME280_temperature;BME280_humidity;BME280_pressure;Samples;Min_cycle;Max_cycle;Signal;HPM_P1;HPM_P2
2023/12/23 00:02:05;;;;;;;1.80;0.93;;;;;;;20.20;38.82;99795.69;4618554;31;20084;-62
2023/12/23 00:04:32;;;;;;;2.17;1.00;;;;;;;20.20;38.47;99791.16;4620439;31;20420;-60
2023/12/23 00:07:00;;;;;;;1.90;1.02;;;;;;;20.21;38.58;99792.81;4617771;31;20083;-62
2023/12/23 00:09:27;;;;;;;2.50;1.10;;;;;;;20.22;38.44;99796.38;4618613;30;20105;-62
2023/12/23 00:11:54;;;;;;;3.38;1.13;;;;;;;20.23;38.58;99798.06;4620865;31;20063;-60
2023/12/23 00:14:22;;;;;;;2.00;0.65;;;;;;;20.24;38.43;99795.19;4620467;31;20055;-62
2023/12/23 00:16:49;;;;;;;2.50;1.15;;;;;;;20.28;38.01;99795.72;4618264;31;20067;-61
2023/12/23 00:19:16;;;;;;;3.38;1.30;;;;;;;20.31;38.00;99799.94;4618287;31;20056;-61
2023/12/23 00:21:44;;;;;;;2.67;1.20;;;;;;;20.32;38.88;99796.22;4618360;31;20497;-62
2023/12/23 00:24:11;;;;;;;2.17;1.00;;;;;;;20.30;38.63;99792.88;4620713;31;20497;-62
2023/12/23 00:26:39;;;;;;;1.83;0.77;;;;;;;20.29;38.41;99791.16;4618350;31;20052;-58
2023/12/23 00:29:06;;;;;;;2.55;1.00;;;;;;;20.30;38.58;99790.19;4618382;31;20056;-61
2023/12/23 00:31:33;;;;;;;1.85;0.70;;;;;;;20.30;38.99;99793.72;4618582;31;20048;-62
2023/12/23 00:34:01;;;;;;;3.38;1.00;;;;;;;20.32;38.80;99788.16;4618576;31;20055;-60
2023/12/23 00:36:29;;;;;;;3.33;0.93;;;;;;;20.34;38.96;99794.22;4614714;31;20055;-61
2023/12/23 00:38:56;;;;;;;2.47;0.82;;;;;;;20.32;39.03;99796.22;4618522;31;20063;-61
2023/12/23 00:41:23;;;;;;;3.22;0.85;;;;;;;20.30;38.75;99793.72;4616256;31;20060;-61
2023/12/23 00:43:51;;;;;;;2.25;0.90;;;;;;;20.29;38.69;99793.84;4618251;31;20055;-61
2023/12/23 00:46:20;;;;;;;2.28;0.98;;;;;;;20.28;38.58;99800.25;4618268;31;20067;-60
2023/12/23 00:48:47;;;;;;;2.72;0.73;;;;;;;20.27;38.77;99803.94;4630908;30;20059;-60
2023/12/23 00:51:15;;;;;;;1.58;0.68;;;;;;;20.24;38.79;99803.25;4630996;30;20056;-59
2023/12/23 00:53:42;;;;;;;2.50;1.30;;;;;;;20.25;38.66;99810.34;4620251;31;20055;-59
2023/12/23 00:56:22;;;;;;;1.98;0.88;;;;;;;20.24;38.74;99811.31;4617975;31;20071;-60
2023/12/23 00:58:50;;;;;;;1.70;0.68;;;;;;;20.23;38.62;99817.69;4616510;31;20401;-60
2023/12/23 01:01:17;;;;;;;2.53;0.73;;;;;;;20.23;38.87;99820.38;4619345;31;20075;-60
2023/12/23 01:03:45;;;;;;;1.60;0.90;;;;;;;20.22;38.79;99826.78;4619062;31;20085;-60
2023/12/23 01:06:12;;;;;;;2.70;1.00;;;;;;;20.21;38.86;99819.69;4617879;31;20060;-60
2023/12/23 01:08:40;;;;;;;2.53;0.85;;;;;;;20.21;38.77;99822.38;4629779;30;20066;-59
2023/12/23 01:11:09;;;;;;;3.15;0.95;;;;;;;20.22;38.74;99824.09;4619435;31;20056;-60
2023/12/23 01:13:37;;;;;;;2.25;0.88;;;;;;;20.21;38.86;99829.59;4618441;31;20059;-60
2023/12/23 01:16:06;;;;;;;1.77;0.68;;;;;;;20.21;38.88;99833.13;4617866;31;20063;-60
2023/12/23 01:18:33;;;;;;;1.73;0.80;;;;;;;20.19;38.77;99835.16;4618087;31;20056;-61
2023/12/23 01:21:01;;;;;;;2.20;0.90;;;;;;;20.21;38.81;99849.25;4620115;31;20058;-61
2023/12/23 01:23:28;;;;;;;1.60;0.85;;;;;;;20.19;38.83;99840.53;4630864;30;20077;-61
2023/12/23 01:25:56;;;;;;;3.13;0.90;;;;;;;20.20;38.63;99846.75;4617696;31;20417;-61
2023/12/23 01:28:23;;;;;;;2.17;0.80;;;;;;;20.18;38.60;99849.59;4617603;31;20517;-60
2023/12/23 01:30:51;;;;;;;2.05;0.60;;;;;;;20.19;38.55;99851.28;4619584;31;20059;-61
2023/12/23 01:33:18;;;;;;;2.10;0.80;;;;;;;20.19;38.46;99855.81;4618070;31;20083;-61
2023/12/23 01:35:46;;;;;;;3.53;1.00;;;;;;;20.19;38.49;99855.81;4629637;30;20070;-60
2023/12/23 01:38:13;;;;;;;2.10;0.88;;;;;;;20.19;38.66;99853.97;4618453;31;20416;-61
2023/12/23 01:40:41;;;;;;;4.03;1.05;;;;;;;20.19;38.52;99861.19;4621028;31;20067;-60
2023/12/23 01:43:09;;;;;;;1.60;0.75;;;;;;;20.18;38.47;99857.66;4620183;31;20064;-61
2023/12/23 01:45:36;;;;;;;1.73;0.80;;;;;;;20.18;38.60;99863.03;4632862;30;20518;-61
2023/12/23 01:48:05;;;;;;;2.35;1.13;;;;;;;20.19;38.46;99870.09;4620801;31;20420;-60
2023/12/23 01:50:33;;;;;;;2.85;0.90;;;;;;;20.19;38.46;99866.56;4622891;31;20064;-60
2023/12/23 01:53:01;;;;;;;1.77;0.60;;;;;;;20.20;38.63;99873.63;4619659;31;20067;-60
2023/12/23 01:55:31;;;;;;;3.10;1.17;;;;;;;20.19;38.45;99891.59;4620727;31;20420;-60
2023/12/23 01:57:59;;;;;;;2.03;0.73;;;;;;;20.18;38.42;99884.53;4619298;31;20071;-60
2023/12/23 02:00:26;;;;;;;1.60;0.73;;;;;;;20.19;38.38;99888.91;4623376;31;20081;-60
2023/12/23 02:02:56;;;;;;;2.05;0.90;;;;;;;20.20;38.45;99898.63;4620570;31;20062;-60
2023/12/23 02:05:24;;;;;;;3.05;1.20;;;;;;;20.20;38.44;99893.25;4613913;31;20055;-60
2023/12/23 02:07:52;;;;;;;2.42;0.88;;;;;;;20.21;38.55;99897.63;4620753;31;20528;-61
2023/12/23 02:10:20;;;;;;;4.10;0.82;;;;;;;20.20;38.49;99890.56;4623306;31;20074;-61
2023/12/23 02:13:05;;;;;;;2.83;0.98;;;;;;;20.21;38.55;99883.34;4620197;31;20059;-61
2023/12/23 02:15:43;;;;;;;1.42;0.73;;;;;;;20.19;38.40;99888.06;4618771;31;20090;-61
2023/12/23 02:18:12;;;;;;;3.08;1.00;;;;;;;20.18;38.48;99892.59;4622899;30;20067;-60
2023/12/23 02:20:41;;;;;;;2.35;0.93;;;;;;;20.19;38.48;99888.06;4620089;31;20056;-61
2023/12/23 02:23:08;;;;;;;3.25;0.70;;;;;;;20.21;38.56;99894.09;4618729;31;20060;-61
2023/12/23 02:25:36;;;;;;;1.30;0.70;;;;;;;20.20;38.51;99897.81;4620062;31;20523;-61
2023/12/23 02:28:07;;;;;;;1.92;0.80;;;;;;;20.20;38.56;99889.75;4620661;31;20062;-61
2023/12/23 02:30:39;;;;;;;2.65;0.73;;;;;;;20.20;38.34;99895.13;4632459;30;20543;-61
2023/12/23 02:33:07;;;;;;;1.52;0.77;;;;;;;20.21;38.46;99886.88;4620205;31;20064;-61
2023/12/23 02:35:34;;;;;;;1.15;0.47;;;;;;;20.19;38.42;99880.84;4619484;31;20071;-61
2023/12/23 02:38:02;;;;;;;1.42;0.50;;;;;;;20.20;38.56;99889.75;4621989;31;20070;-60
2023/12/23 02:40:29;;;;;;;1.50;0.60;;;;;;;20.19;38.54;99894.28;4620007;31;20059;-61
2023/12/23 02:42:57;;;;;;;1.33;0.70;;;;;;;20.20;38.44;99900.50;4620071;31;20056;-61
2023/12/23 02:45:24;;;;;;;1.77;0.73;;;;;;;20.19;38.67;99893.44;4632527;30;20059;-61
2023/12/23 02:47:53;;;;;;;1.70;0.70;;;;;;;20.19;38.61;99888.91;4621843;31;20070;-60
2023/12/23 02:50:21;;;;;;;2.05;0.80;;;;;;;20.19;38.57;99891.59;4619172;31;20074;-60
2023/12/23 02:52:49;;;;;;;2.10;0.80;;;;;;;20.19;38.57;99898.81;4619924;31;20428;-60
2023/12/23 02:55:18;;;;;;;1.95;0.60;;;;;;;20.20;38.54;99903.19;4620940;31;20060;-60
2023/12/23 02:57:46;;;;;;;2.60;0.70;;;;;;;20.19;38.60;99905.03;4621235;31;20419;-60
2023/12/23 03:00:13;;;;;;;2.30;1.27;;;;;;;20.19;38.58;99901.50;4614974;31;20063;-61
2023/12/23 03:02:41;;;;;;;3.10;0.70;;;;;;;20.19;38.48;99906.88;4618776;31;20067;-60
2023/12/23 03:05:08;;;;;;;2.60;0.95;;;;;;;20.19;38.50;99901.50;4620758;31;20393;-61
2023/12/23 03:07:36;;;;;;;2.70;0.82;;;;;;;20.19;38.38;99905.03;4612304;31;20435;-60
2023/12/23 03:10:04;;;;;;;2.10;0.60;;;;;;;20.19;38.50;99905.03;4631753;30;20091;-60
2023/12/23 03:12:31;;;;;;;2.97;0.68;;;;;;;20.17;38.52;99890.88;4631684;30;20083;-60
2023/12/23 03:14:59;;;;;;;1.42;0.50;;;;;;;20.18;38.59;99900.66;4620763;31;20052;-60
2023/12/23 03:17:27;;;;;;;1.70;0.70;;;;;;;20.18;38.48;99897.97;4612090;31;20508;-60
2023/12/23 03:19:55;;;;;;;2.22;0.60;;;;;;;20.18;38.46;99907.88;4619446;31;20067;-60
2023/12/23 03:22:24;;;;;;;2.05;0.90;;;;;;;20.18;38.41;99907.88;4619749;31;20064;-60
2023/12/23 03:24:51;;;;;;;1.73;0.60;;;;;;;20.17;38.36;99907.00;4620838;31;20060;-59
2023/12/23 03:27:19;;;;;;;1.38;0.57;;;;;;;20.18;38.30;99903.34;4611611;31;20059;-60
2023/12/23 03:29:46;;;;;;;1.63;0.60;;;;;;;20.18;38.10;99905.19;4631348;30;20551;-61
2023/12/23 03:32:16;;;;;;;2.05;0.70;;;;;;;20.18;38.13;99897.13;4619204;31;20513;-61
2023/12/23 03:34:43;;;;;;;1.75;0.77;;;;;;;20.18;38.14;99895.28;4620873;31;20079;-61
2023/12/23 03:37:12;;;;;;;1.85;0.73;;;;;;;20.17;38.22;99893.56;4619950;31;20074;-59
2023/12/23 03:39:40;;;;;;;1.67;0.88;;;;;;;20.19;38.14;99893.44;4618842;31;20067;-59
2023/12/23 03:42:07;;;;;;;2.45;0.82;;;;;;;20.19;38.07;99894.28;4618670;31;20060;-59
2023/12/23 03:44:34;;;;;;;1.90;0.70;;;;;;;20.18;38.03;99892.59;4620624;31;20056;-59
2023/12/23 03:47:02;;;;;;;2.25;0.70;;;;;;;20.19;38.04;99896.97;4619977;31;20060;-60
2023/12/23 03:49:29;;;;;;;1.65;0.65;;;;;;;20.20;38.25;99905.88;4630856;30;20070;-61
2023/12/23 03:51:57;;;;;;;1.98;0.60;;;;;;;20.20;38.03;99909.38;4618849;31;20536;-61
2023/12/23 03:54:24;;;;;;;2.03;0.70;;;;;;;20.20;38.19;99909.38;4620396;31;20052;-61
2023/12/23 03:56:52;;;;;;;1.90;0.70;;;;;;;20.19;38.00;99901.50;4617736;31;20067;-60
2023/12/23 03:59:20;;;;;;;2.15;0.82;;;;;;;20.20;38.09;99916.63;4618996;31;20075;-61
2023/12/23 04:01:47;;;;;;;1.98;0.80;;;;;;;20.20;38.05;99911.25;4618445;31;20059;-61
2023/12/23 04:04:15;;;;;;;1.60;0.77;;;;;;;20.21;38.18;99913.75;4633233;30;20060;-61
2023/12/23 04:06:42;;;;;;;1.00;0.40;;;;;;;20.20;38.12;99912.06;4619516;31;20450;-60
2023/12/23 04:09:10;;;;;;;1.65;0.57;;;;;;;20.22;38.29;99914.63;4631028;30;20064;-61
2023/12/23 04:11:37;;;;;;;1.27;0.43;;;;;;;20.22;38.06;99915.47;4631205;30;20394;-60
2023/12/23 04:14:04;;;;;;;1.40;0.60;;;;;;;20.22;38.18;99920.00;4620457;31;20058;-60
2023/12/23 04:16:32;;;;;;;0.85;0.40;;;;;;;20.21;38.35;99919.13;4631616;30;20530;-59
2023/12/23 04:19:00;;;;;;;1.30;0.65;;;;;;;20.22;38.25;99920.84;4614126;31;20067;-59
2023/12/23 04:21:27;;;;;;;0.98;0.40;;;;;;;20.22;38.42;99920.00;4618503;31;20428;-59
2023/12/23 04:23:55;;;;;;;1.20;0.63;;;;;;;20.22;38.37;99930.75;4632977;30;20083;-59
2023/12/23 04:26:22;;;;;;;1.05;0.35;;;;;;;20.22;38.47;99936.97;4619079;31;20530;-60
2023/12/23 04:28:50;;;;;;;1.50;0.57;;;;;;;20.22;38.35;99933.44;4612815;31;20126;-61
2023/12/23 04:31:17;;;;;;;1.27;0.63;;;;;;;20.23;38.54;99937.81;4616451;31;20139;-61
2023/12/23 04:33:45;;;;;;;1.52;0.40;;;;;;;20.23;38.54;99932.44;4620596;31;20055;-61
2023/12/23 04:36:13;;;;;;;1.15;0.47;;;;;;;20.23;38.45;99935.13;4610053;31;20419;-60
2023/12/23 04:38:40;;;;;;;2.30;0.60;;;;;;;20.23;38.68;99940.50;4618102;31;20059;-61
2023/12/23 04:41:08;;;;;;;0.68;0.50;;;;;;;20.23;38.66;99944.00;4617853;31;20064;-62
2023/12/23 04:43:38;;;;;;;2.15;0.50;;;;;;;20.22;38.52;99946.88;4632964;30;20180;-62
2023/12/23 04:46:07;;;;;;;1.00;0.40;;;;;;;20.22;38.55;99936.97;4618686;31;20067;-61
2023/12/23 04:48:35;;;;;;;1.05;0.40;;;;;;;20.23;38.56;99945.88;4619965;30;20071;-60
2023/12/23 04:51:02;;;;;;;1.75;0.52;;;;;;;20.22;38.86;99936.97;4614250;31;20424;-60
2023/12/23 04:53:29;;;;;;;1.80;0.63;;;;;;;20.22;38.83;99941.50;4620622;31;20059;-60
2023/12/23 04:55:57;;;;;;;0.90;0.40;;;;;;;20.23;38.93;99949.38;4615444;31;20052;-60
2023/12/23 04:58:24;;;;;;;1.58;0.52;;;;;;;20.23;38.63;99962.00;4619898;30;20056;-62
2023/12/23 05:00:52;;;;;;;1.77;0.60;;;;;;;20.22;38.65;99957.63;4614221;31;20059;-60
2023/12/23 05:03:19;;;;;;;0.98;0.50;;;;;;;20.23;39.18;99959.31;4620539;31;20051;-62
2023/12/23 05:05:47;;;;;;;1.02;0.40;;;;;;;20.23;39.77;99965.53;4627089;30;20504;-62
2023/12/23 05:08:16;;;;;;;1.48;0.55;;;;;;;20.25;40.02;99963.53;4606060;31;20060;-62
2023/12/23 05:10:45;;;;;;;2.67;0.50;;;;;;;20.24;39.98;99969.03;4614553;31;20060;-65
2023/12/23 05:13:12;;;;;;;1.17;0.60;;;;;;;20.25;40.06;99971.59;4619823;31;20074;-61
2023/12/23 05:15:40;;;;;;;1.02;0.30;;;;;;;20.25;40.19;99973.41;4616720;31;20064;-62
2023/12/23 05:18:07;;;;;;;0.77;0.30;;;;;;;20.25;39.69;99968.03;4621493;31;20055;-61
2023/12/23 05:20:35;;;;;;;1.13;0.50;;;;;;;20.25;39.56;99978.78;4619548;31;20064;-60
2023/12/23 05:23:02;;;;;;;0.80;0.40;;;;;;;20.24;40.09;99969.88;4636634;30;20063;-60
2023/12/23 05:25:29;;;;;;;0.98;0.40;;;;;;;20.26;40.24;99980.50;4618543;31;20050;-60
2023/12/23 05:27:57;;;;;;;1.35;0.50;;;;;;;20.25;39.97;99985.03;4621669;31;20505;-60
2023/12/23 05:30:26;;;;;;;1.08;0.55;;;;;;;20.25;39.29;99978.78;4619565;31;20063;-61
2023/12/23 05:32:53;;;;;;;0.85;0.38;;;;;;;20.24;38.70;99980.63;4621599;31;20060;-60
2023/12/23 05:35:21;;;;;;;1.80;0.40;;;;;;;20.25;38.52;99989.53;4623491;30;20059;-59
2023/12/23 05:37:48;;;;;;;2.65;0.50;;;;;;;20.25;38.56;99990.41;4621241;31;20523;-60
2023/12/23 05:40:16;;;;;;;0.95;0.50;;;;;;;20.25;39.65;99995.78;4621071;31;20089;-61
2023/12/23 05:42:43;;;;;;;1.00;0.50;;;;;;;20.27;40.07;100001.00;4623665;31;20066;-61
2023/12/23 05:45:11;;;;;;;1.60;0.47;;;;;;;20.28;40.16;100001.81;4620748;31;20051;-60
2023/12/23 05:47:39;;;;;;;2.15;0.60;;;;;;;20.27;39.57;100013.59;4620810;31;20056;-60
2023/12/23 05:50:07;;;;;;;1.67;0.70;;;;;;;20.27;39.00;100017.13;4620921;31;20066;-60
2023/12/23 05:52:34;;;;;;;2.70;0.60;;;;;;;20.27;38.58;100018.97;4623304;31;20488;-59
2023/12/23 05:55:02;;;;;;;2.72;0.55;;;;;;;20.25;38.58;100017.28;4620768;31;20071;-60
2023/12/23 05:57:30;;;;;;;1.13;0.60;;;;;;;20.25;38.47;100024.47;4621066;31;20052;-60
2023/12/23 05:59:57;;;;;;;0.88;0.40;;;;;;;20.26;38.51;100026.19;4618967;31;20071;-61
2023/12/23 06:02:24;;;;;;;1.95;0.50;;;;;;;20.26;38.51;100047.69;4623304;31;20059;-61
2023/12/23 06:04:52;;;;;;;1.77;0.40;;;;;;;20.26;38.53;100039.63;4620417;31;20056;-63
2023/12/23 06:07:19;;;;;;;1.27;0.60;;;;;;;20.26;38.58;100050.38;4620623;31;20060;-60
2023/12/23 06:09:47;;;;;;;1.23;0.50;;;;;;;20.26;38.63;100047.69;4621227;31;20074;-60
2023/12/23 06:12:14;;;;;;;1.48;0.50;;;;;;;20.25;38.61;100060.28;4623685;31;20063;-59
2023/12/23 06:14:41;;;;;;;1.10;0.40;;;;;;;20.27;38.42;100061.97;4620654;31;20059;-60
2023/12/23 06:17:09;;;;;;;1.00;0.40;;;;;;;20.25;38.30;100068.34;4620392;31;20416;-61
2023/12/23 06:19:36;;;;;;;2.30;0.50;;;;;;;20.26;38.20;100071.88;4620278;31;20056;-61
2023/12/23 06:22:03;;;;;;;1.25;0.50;;;;;;;20.25;38.32;100080.91;4622959;31;20055;-61
2023/12/23 06:24:31;;;;;;;1.73;0.30;;;;;;;20.25;38.23;100083.59;4620150;31;20060;-61
2023/12/23 06:26:58;;;;;;;0.90;0.30;;;;;;;20.25;38.06;100092.53;4620312;31;20059;-61
2023/12/23 06:29:26;;;;;;;1.58;0.50;;;;;;;20.25;38.09;100092.53;4620567;31;20062;-60
2023/12/23 06:31:53;;;;;;;1.77;0.40;;;;;;;20.25;38.14;100095.22;4622975;31;20062;-60
2023/12/23 06:34:20;;;;;;;1.10;0.40;;;;;;;20.25;38.10;100097.91;4619912;31;20530;-60
2023/12/23 06:36:48;;;;;;;0.95;0.40;;;;;;;20.27;38.10;100099.59;4620083;31;20059;-61
2023/12/23 06:39:15;;;;;;;1.35;0.50;;;;;;;20.26;38.26;100101.44;4620162;31;20055;-62
2023/12/23 06:41:45;;;;;;;0.80;0.32;;;;;;;20.25;38.39;100103.28;4622599;31;20063;-61
2023/12/23 06:44:14;;;;;;;1.20;0.40;;;;;;;20.26;38.39;100106.81;4620348;31;20060;-62
2023/12/23 06:46:42;;;;;;;2.22;0.40;;;;;;;20.25;38.52;100111.34;4620112;31;20052;-61
2023/12/23 06:49:09;;;;;;;2.33;0.50;;;;;;;20.25;38.48;100114.03;4622022;31;20051;-59
2023/12/23 06:51:36;;;;;;;1.23;0.32;;;;;;;20.26;38.33;100114.88;4623117;31;20082;-59
2023/12/23 06:54:04;;;;;;;1.13;0.40;;;;;;;20.25;38.14;100119.41;4619630;31;20066;-59
2023/12/23 06:56:31;;;;;;;0.60;0.30;;;;;;;20.25;38.43;100114.03;4619955;31;20059;-59
2023/12/23 06:59:00;;;;;;;1.30;0.60;;;;;;;20.25;38.53;100119.41;4619655;31;20063;-59
2023/12/23 07:01:36;;;;;;;0.75;0.35;;;;;;;20.26;38.58;100128.31;4622561;31;20066;-59
2023/12/23 07:04:04;;;;;;;1.77;0.57;;;;;;;20.27;38.58;100126.47;4619580;31;20064;-59
2023/12/23 07:06:32;;;;;;;0.65;0.30;;;;;;;20.27;38.50;100131.84;4620067;31;20056;-59
2023/12/23 07:08:59;;;;;;;2.50;0.52;;;;;;;20.25;38.29;100137.34;4621172;31;20052;-60
2023/12/23 07:11:27;;;;;;;1.23;0.50;;;;;;;20.26;38.42;100133.69;4621220;31;20059;-60
2023/12/23 07:13:54;;;;;;;1.25;0.40;;;;;;;20.25;38.32;100138.22;4619651;31;20071;-60
2023/12/23 07:16:22;;;;;;;2.38;0.55;;;;;;;20.26;38.23;100131.00;4619631;31;20389;-60
2023/12/23 07:18:49;;;;;;;1.23;0.50;;;;;;;20.25;38.04;100146.28;4620603;31;20056;-61
2023/12/23 07:21:16;;;;;;;0.65;0.20;;;;;;;20.25;38.33;100145.41;4620647;31;20059;-61
2023/12/23 07:23:44;;;;;;;0.80;0.30;;;;;;;20.25;38.27;100153.47;4619393;31;20064;-61
2023/12/23 07:26:14;;;;;;;1.02;0.40;;;;;;;20.25;38.40;100157.03;4619604;31;20508;-60
2023/12/23 07:28:41;;;;;;;1.55;0.38;;;;;;;20.25;38.25;100159.72;4620477;31;20056;-59
2023/12/23 07:31:09;;;;;;;2.13;0.50;;;;;;;20.25;38.26;100157.03;4620398;31;20055;-60
2023/12/23 07:33:36;;;;;;;0.73;0.22;;;;;;;20.27;38.24;100156.88;4618997;31;20059;-59
2023/12/23 07:36:04;;;;;;;0.95;0.32;;;;;;;20.27;38.20;100159.56;4618735;31;20110;-60
2023/12/23 07:38:31;;;;;;;1.40;0.35;;;;;;;20.26;38.20;100152.50;4620495;31;20496;-61
2023/12/23 07:40:58;;;;;;;0.60;0.30;;;;;;;20.28;37.96;100149.66;4620093;31;20064;-61
2023/12/23 07:43:26;;;;;;;0.57;0.20;;;;;;;20.27;38.00;100154.19;4618900;31;20070;-61
2023/12/23 07:45:53;;;;;;;1.33;0.43;;;;;;;20.27;38.20;100151.50;4631954;30;20505;-61
2023/12/23 07:48:21;;;;;;;1.38;0.40;;;;;;;20.29;38.11;100137.91;4620496;31;20060;-61
2023/12/23 07:50:48;;;;;;;0.98;0.30;;;;;;;20.28;38.23;100133.53;4620602;31;20059;-61
2023/12/23 07:53:16;;;;;;;0.77;0.40;;;;;;;20.28;38.30;100141.59;4619065;31;20063;-61
2023/12/23 07:55:43;;;;;;;1.55;0.45;;;;;;;20.29;38.48;100129.84;4618848;31;20432;-61
2023/12/23 07:58:11;;;;;;;1.00;0.30;;;;;;;20.30;38.58;100136.91;4620225;31;20055;-61
2023/12/23 08:00:38;;;;;;;0.75;0.30;;;;;;;20.29;38.67;100146.81;4620206;31;20070;-63
2023/12/23 08:03:05;;;;;;;1.98;0.50;;;;;;;20.31;38.61;100141.28;4618766;31;20402;-61
2023/12/23 08:05:34;;;;;;;1.15;0.40;;;;;;;20.30;38.76;100139.63;4618826;31;20056;-61
2023/12/23 08:08:02;;;;;;;1.13;0.50;;;;;;;20.30;38.77;100143.13;4620132;31;20056;-60
2023/12/23 08:10:29;;;;;;;0.43;0.25;;;;;;;20.31;39.01;100149.34;4620010;31;20130;-60
2023/12/23 08:12:57;;;;;;;1.10;0.32;;;;;;;20.31;38.95;100162.78;4613711;31;20419;-60
2023/12/23 08:15:24;;;;;;;0.68;0.38;;;;;;;20.31;38.86;100166.31;4618812;31;20067;-60
2023/12/23 08:17:51;;;;;;;0.85;0.30;;;;;;;20.31;38.96;100150.19;4620056;31;20400;-60
2023/12/23 08:20:19;;;;;;;0.80;0.30;;;;;;;20.32;38.81;100156.41;4620423;31;20056;-58
2023/12/23 08:22:46;;;;;;;2.15;0.40;;;;;;;20.32;38.79;100157.25;4618531;31;20060;-60
2023/12/23 08:25:15;;;;;;;0.60;0.22;;;;;;;20.33;38.77;100160.78;4618862;31;20063;-59
2023/12/23 08:27:42;;;;;;;1.88;0.60;;;;;;;20.35;39.15;100161.50;4620152;31;20056;-61
2023/12/23 08:30:10;;;;;;;2.17;0.32;;;;;;;20.35;39.17;100167.69;4619282;31;20067;-61
2023/12/23 08:32:37;;;;;;;0.73;0.28;;;;;;;20.37;38.97;100167.53;4618178;31;20063;-61
2023/12/23 08:35:05;;;;;;;1.15;0.45;;;;;;;20.38;39.04;100178.16;4618277;31;20052;-61
2023/12/23 08:37:33;;;;;;;1.13;0.38;;;;;;;20.39;38.96;100182.53;4620058;31;20064;-61
2023/12/23 08:40:00;;;;;;;0.68;0.30;;;;;;;20.40;39.03;100175.31;4619422;31;20055;-61
2023/12/23 08:42:27;;;;;;;2.35;0.40;;;;;;;20.41;39.02;100182.34;4618084;31;20063;-61
2023/12/23 08:44:55;;;;;;;1.23;0.40;;;;;;;20.42;38.82;100187.59;4630320;30;20410;-61
2023/12/23 08:47:22;;;;;;;0.95;0.35;;;;;;;20.43;38.92;100186.59;4615936;31;20063;-59
2023/12/23 08:49:49;;;;;;;0.68;0.20;;;;;;;20.43;38.60;100191.97;4619519;31;20059;-59
2023/12/23 08:52:17;;;;;;;1.25;0.45;;;;;;;20.45;38.52;100205.25;4617986;31;20477;-59
2023/12/23 08:54:44;;;;;;;1.02;0.40;;;;;;;20.44;38.28;100204.41;4618412;31;20517;-59
2023/12/23 08:57:12;;;;;;;0.82;0.38;;;;;;;20.45;38.17;100195.34;4619597;31;20056;-59
2023/12/23 08:59:39;;;;;;;1.10;0.28;;;;;;;20.45;38.16;100195.34;4619351;31;20059;-59
2023/12/23 09:02:06;;;;;;;1.20;0.50;;;;;;;20.46;38.49;100202.44;4618185;31;20569;-59
2023/12/23 09:04:36;;;;;;;0.90;0.40;;;;;;;20.46;38.50;100209.66;4618429;31;20063;-60
2023/12/23 09:07:08;;;;;;;1.10;0.40;;;;;;;20.47;38.49;100214.84;4619809;31;20051;-60
2023/12/23 09:09:35;;;;;;;4.35;0.30;;;;;;;20.48;38.59;100213.00;4618882;31;20066;-61
2023/12/23 09:12:06;;;;;;;2.60;0.40;;;;;;;20.50;38.30;100219.13;4617704;31;20060;-60
2023/12/23 09:14:33;;;;;;;1.20;0.30;;;;;;;20.51;38.06;100217.28;4618243;31;20064;-60
2023/12/23 09:17:00;;;;;;;1.20;0.30;;;;;;;20.51;38.28;100228.88;4620480;31;20070;-59
2023/12/23 09:19:28;;;;;;;1.05;0.30;;;;;;;20.53;38.29;100218.81;4618197;31;20064;-59
2023/12/23 09:21:55;;;;;;;0.88;0.25;;;;;;;20.53;38.10;100216.09;4617841;31;20063;-59
2023/12/23 09:24:22;;;;;;;1.13;0.40;;;;;;;20.53;38.25;100218.81;4617917;31;20127;-60
2023/12/23 09:26:50;;;;;;;0.77;0.20;;;;;;;20.54;37.91;100217.81;4620793;31;20055;-60
2023/12/23 09:29:17;;;;;;;1.15;0.22;;;;;;;20.55;37.69;100215.97;4618329;31;20060;-61
2023/12/23 09:31:45;;;;;;;0.80;0.30;;;;;;;20.55;37.54;100215.97;4617998;31;20497;-60
2023/12/23 09:34:12;;;;;;;0.73;0.20;;;;;;;20.55;37.49;100219.50;4618385;31;20055;-60
2023/12/23 09:36:39;;;;;;;0.55;0.22;;;;;;;20.56;37.37;100223.88;4620079;31;20048;-59
2023/12/23 09:39:07;;;;;;;1.00;0.43;;;;;;;20.57;37.47;100230.94;4618195;31;20056;-54
2023/12/23 09:41:34;;;;;;;0.88;0.45;;;;;;;20.59;37.22;100234.34;4617608;31;20071;-59
2023/12/23 09:44:02;;;;;;;1.38;0.50;;;;;;;20.59;37.04;100234.34;4617778;31;20063;-55
2023/12/23 09:46:31;;;;;;;0.60;0.25;;;;;;;20.61;36.66;100232.31;4620161;31;20397;-59
2023/12/23 09:48:58;;;;;;;0.75;0.38;;;;;;;20.61;36.62;100237.69;4618057;31;20059;-60
2023/12/23 09:51:34;;;;;;;0.95;0.20;;;;;;;20.61;36.44;100231.47;4611292;31;20066;-64
2023/12/23 09:54:03;;;;;;;1.15;0.30;;;;;;;20.61;36.85;100232.31;4617604;31;20059;-65
2023/12/23 09:56:31;;;;;;;0.80;0.30;;;;;;;20.62;36.58;100234.03;4609225;31;20063;-64
2023/12/23 09:59:00;;;;;;;1.88;0.45;;;;;;;20.62;35.99;100234.03;4617767;31;20064;-63
2023/12/23 10:01:27;;;;;;;0.65;0.30;;;;;;;20.62;35.61;100235.84;4633372;30;20056;-62
2023/12/23 10:03:54;;;;;;;1.23;0.50;;;;;;;20.62;35.00;100239.41;4621452;31;20067;-63
2023/12/23 10:06:23;;;;;;;0.80;0.20;;;;;;;20.61;34.96;100229.63;4622752;31;20059;-68
2023/12/23 10:08:51;;;;;;;0.85;0.32;;;;;;;20.62;35.01;100225.97;4620286;31;20059;-68
2023/12/23 10:11:19;;;;;;;0.95;0.38;;;;;;;20.62;35.13;100215.19;4620254;31;20401;-68
2023/12/23 10:13:47;;;;;;;1.23;0.30;;;;;;;20.63;35.18;100214.19;4620828;31;20060;-68
2023/12/23 10:16:15;;;;;;;0.88;0.30;;;;;;;20.63;35.08;100214.19;4622772;31;20082;-63
2023/12/23 10:18:42;;;;;;;1.35;0.45;;;;;;;20.64;35.08;100215.88;4620124;31;20052;-63
2023/12/23 10:21:09;;;;;;;0.55;0.20;;;;;;;20.64;35.13;100215.88;4620440;31;20600;-63
2023/12/23 10:23:37;;;;;;;1.10;0.30;;;;;;;20.65;35.06;100214.88;4620773;31;20056;-63
2023/12/23 10:26:04;;;;;;;1.60;0.25;;;;;;;20.64;34.30;100212.34;4622178;31;20078;-65
2023/12/23 10:28:35;;;;;;;1.20;0.43;;;;;;;20.64;34.36;100205.13;4620001;31;20055;-69
2023/12/23 10:31:03;;;;;;;1.10;0.63;;;;;;;20.65;34.58;100212.19;4619902;31;20063;-68
2023/12/23 10:33:38;;;;;;;0.82;0.32;;;;;;;20.65;34.91;100204.09;4621149;31;20535;-68
2023/12/23 10:36:11;;;;;;;1.23;0.50;;;;;;;20.65;35.23;100206.81;4621325;31;20064;-63
2023/12/23 10:38:41;;;;;;;;;;;;;;;20.65;35.76;100206.81;4613462;31;20067;-62
2023/12/23 10:41:40;;;;;;;1.45;0.50;;;;;;;20.67;36.00;100202.13;4620239;31;19933;-61
2023/12/23 10:44:08;;;;;;;0.93;0.45;;;;;;;20.67;36.14;100187.84;4613871;31;20067;-61
2023/12/23 10:46:36;;;;;;;1.42;0.40;;;;;;;20.75;35.63;100193.28;4620131;31;20426;-62
2023/12/23 10:49:05;;;;;;;1.40;0.50;;;;;;;20.82;34.94;100182.72;4620402;31;20382;-60
2023/12/23 10:51:33;;;;;;;1.30;0.50;;;;;;;20.83;34.38;100181.75;4622046;30;20064;-61
2023/12/23 10:54:02;;;;;;;0.52;0.20;;;;;;;20.83;34.01;100189.81;4619937;31;20052;-61
2023/12/23 10:56:29;;;;;;;0.80;0.38;;;;;;;20.83;34.68;100182.59;4619701;31;20500;-56
2023/12/23 10:58:57;;;;;;;1.00;0.30;;;;;;;20.82;34.57;100170.09;4620081;31;20051;-56
2023/12/23 11:01:28;;;;;;;1.02;0.40;;;;;;;20.81;34.32;100163.03;4621946;31;20059;-54
2023/12/23 11:04:01;;;;;;;1.02;0.30;;;;;;;20.81;34.07;100170.28;4619601;31;20067;-55
2023/12/23 11:06:32;;;;;;;0.60;0.30;;;;;;;20.78;34.13;100166.03;4619182;31;20416;-59
2023/12/23 11:09:02;;;;;;;1.30;0.38;;;;;;;20.78;34.53;100163.34;4620940;31;20063;-59
2023/12/23 11:11:31;;;;;;;0.88;0.40;;;;;;;20.78;35.23;100178.66;4619554;31;20062;-59
2023/12/23 11:13:58;;;;;;;3.63;0.75;;;;;;;20.78;37.79;100146.38;4619976;31;20066;-59
2023/12/23 11:16:26;;;;;;;1.75;0.47;;;;;;;20.78;38.76;100167.88;4619856;31;20060;-59
2023/12/23 11:18:54;;;;;;;3.20;0.50;;;;;;;20.78;38.29;100165.19;4620583;31;20047;-60
2023/12/23 11:21:24;;;;;;;2.03;0.70;;;;;;;20.76;38.17;100168.06;4618784;31;20079;-59
2023/12/23 11:23:51;;;;;;;3.45;0.70;;;;;;;20.74;37.95;100162.84;4619163;31;20515;-60
2023/12/23 11:26:41;;;;;;;2.67;0.60;;;;;;;20.75;37.22;100150.25;4618945;31;20067;-58
2023/12/23 11:29:14;;;;;;;3.42;0.63;;;;;;;20.74;37.06;100151.22;4621103;31;20059;-59
2023/12/23 11:31:42;;;;;;;1.40;0.60;;;;;;;20.73;36.77;100145.00;4618803;31;20067;-59
2023/12/23 11:34:15;;;;;;;1.40;0.50;;;;;;;20.73;36.51;100136.09;4618584;31;20056;-59